sensor_id;sensor_type;location;lat;lon;timestamp;P1;durP1;ratioP1;P2;durP2;ratioP2
61806;SDS011;47726;52.766;6.606;2023-04-25T00:01:55;20.85;;;5.55;;
61806;SDS011;47726;52.766;6.606;2023-04-25T00:04:21;21.95;;;5.40;;
61806;SDS011;47726;52.766;6.606;2023-04-25T00:06:47;16.98;;;5.10;;
61806;SDS011;47726;52.766;6.606;2023-04-25T00:09:13;19.67;;;5.40;;
61806;SDS011;47726;52.766;6.606;2023-04-25T00:11:39;20.52;;;5.25;;
61806;SDS011;47726;52.766;6.606;2023-04-25T00:14:05;18.65;;;5.15;;
61806;SDS011;47726;52.766;6.606;2023-04-25T00:16:31;19.83;;;5.45;;
61806;SDS011;47726;52.766;6.606;2023-04-25T00:18:58;21.40;;;4.93;;
61806;SDS011;47726;52.766;6.606;2023-04-25T00:21:24;19.35;;;5.45;;
61806;SDS011;47726;52.766;6.606;2023-04-25T00:23:50;20.27;;;4.78;;
61806;SDS011;47726;52.766;6.606;2023-04-25T00:26:19;21.42;;;5.35;;
61806;SDS011;47726;52.766;6.606;2023-04-25T00:28:46;18.85;;;5.00;;
61806;SDS011;47726;52.766;6.606;2023-04-25T00:31:12;21.60;;;4.95;;
61806;SDS011;47726;52.766;6.606;2023-04-25T00:33:37;20.95;;;5.53;;
61806;SDS011;47726;52.766;6.606;2023-04-25T00:36:03;18.95;;;4.78;;
61806;SDS011;47726;52.766;6.606;2023-04-25T00:38:29;19.75;;;5.45;;
61806;SDS011;47726;52.766;6.606;2023-04-25T00:40:55;18.25;;;5.03;;
61806;SDS011;47726;52.766;6.606;2023-04-25T00:43:21;22.02;;;4.78;;
61806;SDS011;47726;52.766;6.606;2023-04-25T00:45:46;21.48;;;5.13;;
61806;SDS011;47726;52.766;6.606;2023-04-25T00:48:13;22.80;;;5.22;;
61806;SDS011;47726;52.766;6.606;2023-04-25T00:50:39;22.45;;;5.25;;
61806;SDS011;47726;52.766;6.606;2023-04-25T00:53:06;26.25;;;5.57;;
61806;SDS011;47726;52.766;6.606;2023-04-25T00:55:32;24.10;;;5.55;;
61806;SDS011;47726;52.766;6.606;2023-04-25T00:57:59;19.42;;;5.18;;
61806;SDS011;47726;52.766;6.606;2023-04-25T01:00:25;16.73;;;4.93;;
61806;SDS011;47726;52.766;6.606;2023-04-25T01:02:51;20.65;;;5.45;;
61806;SDS011;47726;52.766;6.606;2023-04-25T01:05:17;22.73;;;5.22;;
61806;SDS011;47726;52.766;6.606;2023-04-25T01:07:44;16.60;;;5.03;;
61806;SDS011;47726;52.766;6.606;2023-04-25T01:10:10;18.80;;;4.82;;
61806;SDS011;47726;52.766;6.606;2023-04-25T01:12:36;20.58;;;5.45;;
61806;SDS011;47726;52.766;6.606;2023-04-25T01:15:02;15.73;;;5.03;;
61806;SDS011;47726;52.766;6.606;2023-04-25T01:17:28;14.93;;;4.82;;
61806;SDS011;47726;52.766;6.606;2023-04-25T01:19:54;20.92;;;5.07;;
61806;SDS011;47726;52.766;6.606;2023-04-25T01:22:20;18.60;;;5.05;;
61806;SDS011;47726;52.766;6.606;2023-04-25T01:24:46;14.88;;;4.60;;
61806;SDS011;47726;52.766;6.606;2023-04-25T01:27:12;13.38;;;4.70;;
61806;SDS011;47726;52.766;6.606;2023-04-25T01:29:37;17.75;;;4.90;;
61806;SDS011;47726;52.766;6.606;2023-04-25T01:32:04;19.42;;;4.90;;
61806;SDS011;47726;52.766;6.606;2023-04-25T01:34:30;19.02;;;4.80;;
61806;SDS011;47726;52.766;6.606;2023-04-25T01:36:56;18.90;;;4.85;;
61806;SDS011;47726;52.766;6.606;2023-04-25T01:39:23;22.05;;;4.75;;
61806;SDS011;47726;52.766;6.606;2023-04-25T01:41:50;21.90;;;4.80;;
61806;SDS011;47726;52.766;6.606;2023-04-25T01:44:15;17.92;;;4.63;;
61806;SDS011;47726;52.766;6.606;2023-04-25T01:46:41;21.23;;;5.00;;
61806;SDS011;47726;52.766;6.606;2023-04-25T01:49:07;16.10;;;5.03;;
61806;SDS011;47726;52.766;6.606;2023-04-25T01:51:33;16.70;;;4.45;;
61806;SDS011;47726;52.766;6.606;2023-04-25T01:53:59;17.20;;;5.13;;
61806;SDS011;47726;52.766;6.606;2023-04-25T01:56:25;21.33;;;5.05;;
61806;SDS011;47726;52.766;6.606;2023-04-25T01:58:54;17.63;;;5.10;;
61806;SDS011;47726;52.766;6.606;2023-04-25T02:01:20;17.08;;;4.80;;
61806;SDS011;47726;52.766;6.606;2023-04-25T02:03:45;19.02;;;5.35;;
61806;SDS011;47726;52.766;6.606;2023-04-25T02:06:11;19.77;;;5.63;;
61806;SDS011;47726;52.766;6.606;2023-04-25T02:08:36;19.67;;;5.30;;
61806;SDS011;47726;52.766;6.606;2023-04-25T02:11:02;17.55;;;4.82;;
61806;SDS011;47726;52.766;6.606;2023-04-25T02:13:28;19.10;;;5.07;;
61806;SDS011;47726;52.766;6.606;2023-04-25T02:15:53;15.15;;;4.60;;
61806;SDS011;47726;52.766;6.606;2023-04-25T02:18:19;21.98;;;5.20;;
61806;SDS011;47726;52.766;6.606;2023-04-25T02:20:46;18.17;;;5.18;;
61806;SDS011;47726;52.766;6.606;2023-04-25T02:23:12;18.23;;;5.07;;
61806;SDS011;47726;52.766;6.606;2023-04-25T02:25:38;18.80;;;5.10;;
61806;SDS011;47726;52.766;6.606;2023-04-25T02:28:04;19.77;;;4.63;;
61806;SDS011;47726;52.766;6.606;2023-04-25T02:30:29;15.20;;;4.80;;
61806;SDS011;47726;52.766;6.606;2023-04-25T02:32:55;20.85;;;4.70;;
61806;SDS011;47726;52.766;6.606;2023-04-25T02:35:21;20.20;;;5.10;;
61806;SDS011;47726;52.766;6.606;2023-04-25T02:37:47;20.20;;;5.60;;
61806;SDS011;47726;52.766;6.606;2023-04-25T02:40:12;21.08;;;5.07;;
61806;SDS011;47726;52.766;6.606;2023-04-25T02:42:38;14.55;;;4.13;;
61806;SDS011;47726;52.766;6.606;2023-04-25T02:45:03;23.77;;;4.45;;
61806;SDS011;47726;52.766;6.606;2023-04-25T02:47:30;19.85;;;4.75;;
61806;SDS011;47726;52.766;6.606;2023-04-25T02:49:55;22.38;;;4.63;;
61806;SDS011;47726;52.766;6.606;2023-04-25T02:52:21;23.00;;;4.68;;
61806;SDS011;47726;52.766;6.606;2023-04-25T02:54:46;17.38;;;4.30;;
61806;SDS011;47726;52.766;6.606;2023-04-25T02:57:12;17.42;;;4.20;;
61806;SDS011;47726;52.766;6.606;2023-04-25T02:59:38;18.67;;;4.15;;
61806;SDS011;47726;52.766;6.606;2023-04-25T03:02:03;16.35;;;3.97;;
61806;SDS011;47726;52.766;6.606;2023-04-25T03:04:29;18.48;;;4.13;;
61806;SDS011;47726;52.766;6.606;2023-04-25T03:06:54;18.63;;;3.67;;
61806;SDS011;47726;52.766;6.606;2023-04-25T03:09:20;16.65;;;4.43;;
61806;SDS011;47726;52.766;6.606;2023-04-25T03:11:46;15.23;;;3.78;;
61806;SDS011;47726;52.766;6.606;2023-04-25T03:14:12;18.75;;;3.95;;
61806;SDS011;47726;52.766;6.606;2023-04-25T03:16:38;14.10;;;3.72;;
61806;SDS011;47726;52.766;6.606;2023-04-25T03:19:04;14.50;;;3.63;;
61806;SDS011;47726;52.766;6.606;2023-04-25T03:21:30;17.17;;;4.07;;
61806;SDS011;47726;52.766;6.606;2023-04-25T03:23:58;20.60;;;3.85;;
61806;SDS011;47726;52.766;6.606;2023-04-25T03:26:24;14.82;;;3.67;;
61806;SDS011;47726;52.766;6.606;2023-04-25T03:28:49;16.10;;;3.45;;
61806;SDS011;47726;52.766;6.606;2023-04-25T03:31:15;19.15;;;3.90;;
61806;SDS011;47726;52.766;6.606;2023-04-25T03:33:41;14.80;;;3.58;;
61806;SDS011;47726;52.766;6.606;2023-04-25T03:36:06;14.57;;;3.75;;
61806;SDS011;47726;52.766;6.606;2023-04-25T03:38:32;13.45;;;3.25;;
61806;SDS011;47726;52.766;6.606;2023-04-25T03:40:58;12.13;;;3.40;;
61806;SDS011;47726;52.766;6.606;2023-04-25T03:43:23;14.07;;;3.50;;
61806;SDS011;47726;52.766;6.606;2023-04-25T03:45:49;13.60;;;3.33;;
61806;SDS011;47726;52.766;6.606;2023-04-25T03:48:15;15.65;;;3.60;;
61806;SDS011;47726;52.766;6.606;2023-04-25T03:50:40;11.15;;;2.90;;
61806;SDS011;47726;52.766;6.606;2023-04-25T03:53:06;12.20;;;3.20;;
61806;SDS011;47726;52.766;6.606;2023-04-25T03:55:32;9.98;;;3.05;;
61806;SDS011;47726;52.766;6.606;2023-04-25T03:57:58;10.88;;;2.90;;
61806;SDS011;47726;52.766;6.606;2023-04-25T04:00:24;9.82;;;2.78;;
61806;SDS011;47726;52.766;6.606;2023-04-25T04:02:50;10.90;;;2.80;;
61806;SDS011;47726;52.766;6.606;2023-04-25T04:05:16;5.85;;;2.50;;
61806;SDS011;47726;52.766;6.606;2023-04-25T04:07:41;10.93;;;2.80;;
61806;SDS011;47726;52.766;6.606;2023-04-25T04:10:08;7.35;;;2.83;;
61806;SDS011;47726;52.766;6.606;2023-04-25T04:12:34;6.72;;;2.42;;
61806;SDS011;47726;52.766;6.606;2023-04-25T04:15:00;7.90;;;2.40;;
61806;SDS011;47726;52.766;6.606;2023-04-25T04:17:30;10.18;;;2.65;;
61806;SDS011;47726;52.766;6.606;2023-04-25T04:19:55;7.95;;;2.65;;
61806;SDS011;47726;52.766;6.606;2023-04-25T04:22:21;8.15;;;2.55;;
61806;SDS011;47726;52.766;6.606;2023-04-25T04:24:47;15.35;;;2.88;;
61806;SDS011;47726;52.766;6.606;2023-04-25T04:27:14;11.52;;;3.00;;
61806;SDS011;47726;52.766;6.606;2023-04-25T04:29:42;9.50;;;2.72;;
61806;SDS011;47726;52.766;6.606;2023-04-25T04:32:08;9.40;;;2.80;;
61806;SDS011;47726;52.766;6.606;2023-04-25T04:34:34;8.80;;;2.65;;
61806;SDS011;47726;52.766;6.606;2023-04-25T04:36:59;10.20;;;2.90;;
61806;SDS011;47726;52.766;6.606;2023-04-25T04:39:25;10.32;;;2.97;;
61806;SDS011;47726;52.766;6.606;2023-04-25T04:41:51;8.15;;;2.92;;
61806;SDS011;47726;52.766;6.606;2023-04-25T04:44:16;12.73;;;3.20;;
61806;SDS011;47726;52.766;6.606;2023-04-25T04:46:42;9.63;;;2.70;;
61806;SDS011;47726;52.766;6.606;2023-04-25T04:49:09;11.05;;;2.85;;
61806;SDS011;47726;52.766;6.606;2023-04-25T04:51:36;10.00;;;2.90;;
61806;SDS011;47726;52.766;6.606;2023-04-25T04:54:02;11.40;;;3.05;;
61806;SDS011;47726;52.766;6.606;2023-04-25T04:56:28;11.55;;;3.08;;
61806;SDS011;47726;52.766;6.606;2023-04-25T04:58:56;12.63;;;3.15;;
61806;SDS011;47726;52.766;6.606;2023-04-25T05:01:22;13.38;;;3.30;;
61806;SDS011;47726;52.766;6.606;2023-04-25T05:03:48;12.65;;;3.03;;
61806;SDS011;47726;52.766;6.606;2023-04-25T05:06:13;13.38;;;3.17;;
61806;SDS011;47726;52.766;6.606;2023-04-25T05:08:39;11.45;;;3.10;;
61806;SDS011;47726;52.766;6.606;2023-04-25T05:11:05;12.98;;;3.40;;
61806;SDS011;47726;52.766;6.606;2023-04-25T05:13:31;13.13;;;3.40;;
61806;SDS011;47726;52.766;6.606;2023-04-25T05:15:56;13.65;;;3.00;;
61806;SDS011;47726;52.766;6.606;2023-04-25T05:18:22;12.55;;;3.40;;
61806;SDS011;47726;52.766;6.606;2023-04-25T05:20:47;14.05;;;3.22;;
61806;SDS011;47726;52.766;6.606;2023-04-25T05:23:13;11.85;;;3.03;;
61806;SDS011;47726;52.766;6.606;2023-04-25T05:25:38;17.95;;;3.67;;
61806;SDS011;47726;52.766;6.606;2023-04-25T05:28:04;13.38;;;2.90;;
61806;SDS011;47726;52.766;6.606;2023-04-25T05:30:30;15.82;;;3.45;;
61806;SDS011;47726;52.766;6.606;2023-04-25T05:32:56;11.98;;;3.50;;
61806;SDS011;47726;52.766;6.606;2023-04-25T05:35:21;15.02;;;3.42;;
61806;SDS011;47726;52.766;6.606;2023-04-25T05:37:47;10.20;;;2.90;;
61806;SDS011;47726;52.766;6.606;2023-04-25T05:40:12;11.55;;;3.28;;
61806;SDS011;47726;52.766;6.606;2023-04-25T05:42:38;14.90;;;3.45;;
61806;SDS011;47726;52.766;6.606;2023-04-25T05:45:04;15.50;;;3.25;;
61806;SDS011;47726;52.766;6.606;2023-04-25T05:47:30;13.40;;;3.60;;
61806;SDS011;47726;52.766;6.606;2023-04-25T05:49:56;13.88;;;3.53;;
61806;SDS011;47726;52.766;6.606;2023-04-25T05:52:21;13.02;;;3.38;;
61806;SDS011;47726;52.766;6.606;2023-04-25T05:54:47;11.60;;;3.10;;
61806;SDS011;47726;52.766;6.606;2023-04-25T05:57:20;11.60;;;3.05;;
61806;SDS011;47726;52.766;6.606;2023-04-25T05:59:48;9.20;;;3.13;;
61806;SDS011;47726;52.766;6.606;2023-04-25T06:02:14;9.45;;;3.05;;
61806;SDS011;47726;52.766;6.606;2023-04-25T06:04:40;12.93;;;3.20;;
61806;SDS011;47726;52.766;6.606;2023-04-25T06:07:05;15.18;;;3.38;;
61806;SDS011;47726;52.766;6.606;2023-04-25T06:09:31;15.00;;;3.17;;
61806;SDS011;47726;52.766;6.606;2023-04-25T06:11:56;9.02;;;3.00;;
61806;SDS011;47726;52.766;6.606;2023-04-25T06:14:22;12.60;;;3.10;;
61806;SDS011;47726;52.766;6.606;2023-04-25T06:16:47;12.40;;;3.33;;
61806;SDS011;47726;52.766;6.606;2023-04-25T06:19:13;10.32;;;3.08;;
61806;SDS011;47726;52.766;6.606;2023-04-25T06:21:39;10.05;;;3.05;;
61806;SDS011;47726;52.766;6.606;2023-04-25T06:24:04;13.48;;;3.33;;
61806;SDS011;47726;52.766;6.606;2023-04-25T06:26:30;11.52;;;3.28;;
61806;SDS011;47726;52.766;6.606;2023-04-25T06:28:55;14.70;;;3.20;;
61806;SDS011;47726;52.766;6.606;2023-04-25T06:31:21;13.25;;;3.05;;
61806;SDS011;47726;52.766;6.606;2023-04-25T06:33:46;10.98;;;3.05;;
61806;SDS011;47726;52.766;6.606;2023-04-25T06:36:13;10.48;;;2.80;;
61806;SDS011;47726;52.766;6.606;2023-04-25T06:38:39;10.10;;;3.05;;
61806;SDS011;47726;52.766;6.606;2023-04-25T06:41:05;12.90;;;2.92;;
61806;SDS011;47726;52.766;6.606;2023-04-25T06:43:30;14.10;;;3.17;;
61806;SDS011;47726;52.766;6.606;2023-04-25T06:45:58;15.40;;;3.20;;
61806;SDS011;47726;52.766;6.606;2023-04-25T06:48:25;13.57;;;3.00;;
61806;SDS011;47726;52.766;6.606;2023-04-25T06:50:51;11.88;;;3.15;;
61806;SDS011;47726;52.766;6.606;2023-04-25T06:53:17;12.00;;;3.05;;
61806;SDS011;47726;52.766;6.606;2023-04-25T06:55:43;14.48;;;3.08;;
61806;SDS011;47726;52.766;6.606;2023-04-25T06:58:09;13.90;;;2.90;;
61806;SDS011;47726;52.766;6.606;2023-04-25T07:00:35;11.43;;;2.55;;
61806;SDS011;47726;52.766;6.606;2023-04-25T07:03:01;11.45;;;2.83;;
61806;SDS011;47726;52.766;6.606;2023-04-25T07:05:27;8.98;;;2.45;;
61806;SDS011;47726;52.766;6.606;2023-04-25T07:07:52;10.95;;;2.72;;
61806;SDS011;47726;52.766;6.606;2023-04-25T07:10:18;11.90;;;2.83;;
61806;SDS011;47726;52.766;6.606;2023-04-25T07:12:44;16.27;;;2.83;;
61806;SDS011;47726;52.766;6.606;2023-04-25T07:15:09;13.25;;;3.08;;
61806;SDS011;47726;52.766;6.606;2023-04-25T07:17:36;15.32;;;2.80;;
61806;SDS011;47726;52.766;6.606;2023-04-25T07:20:02;11.57;;;2.40;;
61806;SDS011;47726;52.766;6.606;2023-04-25T07:22:28;12.65;;;2.80;;
61806;SDS011;47726;52.766;6.606;2023-04-25T07:24:54;13.70;;;2.83;;
61806;SDS011;47726;52.766;6.606;2023-04-25T07:27:20;9.35;;;2.50;;
61806;SDS011;47726;52.766;6.606;2023-04-25T07:29:45;11.13;;;2.50;;
61806;SDS011;47726;52.766;6.606;2023-04-25T07:32:11;8.15;;;2.45;;
61806;SDS011;47726;52.766;6.606;2023-04-25T07:34:38;7.18;;;2.47;;
61806;SDS011;47726;52.766;6.606;2023-04-25T07:37:04;6.25;;;2.20;;
61806;SDS011;47726;52.766;6.606;2023-04-25T07:39:30;8.25;;;2.50;;
61806;SDS011;47726;52.766;6.606;2023-04-25T07:41:56;9.18;;;2.55;;
61806;SDS011;47726;52.766;6.606;2023-04-25T07:44:23;7.18;;;2.40;;
61806;SDS011;47726;52.766;6.606;2023-04-25T07:46:49;7.57;;;2.50;;
61806;SDS011;47726;52.766;6.606;2023-04-25T07:49:15;9.68;;;2.50;;
61806;SDS011;47726;52.766;6.606;2023-04-25T07:51:40;4.75;;;2.10;;
61806;SDS011;47726;52.766;6.606;2023-04-25T07:54:08;6.88;;;1.90;;
61806;SDS011;47726;52.766;6.606;2023-04-25T07:56:34;7.15;;;2.25;;
61806;SDS011;47726;52.766;6.606;2023-04-25T07:59:00;7.38;;;2.10;;
61806;SDS011;47726;52.766;6.606;2023-04-25T08:01:26;8.35;;;2.20;;
61806;SDS011;47726;52.766;6.606;2023-04-25T08:03:52;6.90;;;2.35;;
61806;SDS011;47726;52.766;6.606;2023-04-25T08:06:18;5.93;;;2.00;;
61806;SDS011;47726;52.766;6.606;2023-04-25T08:08:43;16.83;;;2.30;;
61806;SDS011;47726;52.766;6.606;2023-04-25T08:11:09;8.27;;;2.25;;
61806;SDS011;47726;52.766;6.606;2023-04-25T08:13:35;8.45;;;2.20;;
61806;SDS011;47726;52.766;6.606;2023-04-25T08:16:01;6.80;;;2.30;;
61806;SDS011;47726;52.766;6.606;2023-04-25T08:18:26;9.27;;;2.15;;
61806;SDS011;47726;52.766;6.606;2023-04-25T08:20:52;5.93;;;1.88;;
61806;SDS011;47726;52.766;6.606;2023-04-25T08:23:17;5.65;;;1.83;;
61806;SDS011;47726;52.766;6.606;2023-04-25T08:25:43;4.22;;;1.70;;
61806;SDS011;47726;52.766;6.606;2023-04-25T08:28:08;8.10;;;1.88;;
61806;SDS011;47726;52.766;6.606;2023-04-25T08:30:34;6.45;;;1.95;;
61806;SDS011;47726;52.766;6.606;2023-04-25T08:33:00;12.10;;;2.47;;
61806;SDS011;47726;52.766;6.606;2023-04-25T08:35:25;8.02;;;2.30;;
61806;SDS011;47726;52.766;6.606;2023-04-25T08:37:51;7.57;;;2.10;;
61806;SDS011;47726;52.766;6.606;2023-04-25T08:40:16;8.90;;;2.20;;
61806;SDS011;47726;52.766;6.606;2023-04-25T08:42:42;9.20;;;2.28;;
61806;SDS011;47726;52.766;6.606;2023-04-25T08:45:08;6.50;;;2.15;;
61806;SDS011;47726;52.766;6.606;2023-04-25T08:47:34;6.38;;;1.80;;
61806;SDS011;47726;52.766;6.606;2023-04-25T08:50:02;8.63;;;2.25;;
61806;SDS011;47726;52.766;6.606;2023-04-25T08:52:32;7.30;;;1.92;;
61806;SDS011;47726;52.766;6.606;2023-04-25T08:55:09;12.18;;;2.35;;
61806;SDS011;47726;52.766;6.606;2023-04-25T08:57:36;9.30;;;2.20;;
61806;SDS011;47726;52.766;6.606;2023-04-25T09:00:03;8.77;;;1.90;;
61806;SDS011;47726;52.766;6.606;2023-04-25T09:02:29;7.30;;;2.17;;
61806;SDS011;47726;52.766;6.606;2023-04-25T09:04:55;6.18;;;1.95;;
61806;SDS011;47726;52.766;6.606;2023-04-25T09:07:21;12.65;;;2.33;;
61806;SDS011;47726;52.766;6.606;2023-04-25T09:09:46;7.20;;;1.88;;
61806;SDS011;47726;52.766;6.606;2023-04-25T09:12:12;7.03;;;1.73;;
61806;SDS011;47726;52.766;6.606;2023-04-25T09:14:38;7.40;;;2.13;;
61806;SDS011;47726;52.766;6.606;2023-04-25T09:17:04;8.77;;;2.20;;
61806;SDS011;47726;52.766;6.606;2023-04-25T09:19:33;8.73;;;2.28;;
61806;SDS011;47726;52.766;6.606;2023-04-25T09:22:01;9.43;;;3.00;;
61806;SDS011;47726;52.766;6.606;2023-04-25T09:24:35;9.60;;;2.30;;
61806;SDS011;47726;52.766;6.606;2023-04-25T09:27:05;8.38;;;2.33;;
61806;SDS011;47726;52.766;6.606;2023-04-25T09:29:32;5.60;;;2.08;;
61806;SDS011;47726;52.766;6.606;2023-04-25T09:34:42;9.48;;;2.10;;
61806;SDS011;47726;52.766;6.606;2023-04-25T09:37:10;6.78;;;2.10;;
61806;SDS011;47726;52.766;6.606;2023-04-25T09:39:39;5.75;;;1.80;;
61806;SDS011;47726;52.766;6.606;2023-04-25T09:42:04;7.22;;;1.88;;
61806;SDS011;47726;52.766;6.606;2023-04-25T09:44:30;6.57;;;1.83;;
61806;SDS011;47726;52.766;6.606;2023-04-25T09:46:56;5.65;;;1.80;;
61806;SDS011;47726;52.766;6.606;2023-04-25T09:49:24;4.35;;;1.90;;
61806;SDS011;47726;52.766;6.606;2023-04-25T09:51:57;4.97;;;1.75;;
61806;SDS011;47726;52.766;6.606;2023-04-25T09:54:24;5.13;;;1.77;;
61806;SDS011;47726;52.766;6.606;2023-04-25T09:56:51;6.20;;;1.75;;
61806;SDS011;47726;52.766;6.606;2023-04-25T09:59:21;5.95;;;1.88;;
61806;SDS011;47726;52.766;6.606;2023-04-25T10:01:49;5.65;;;2.00;;
61806;SDS011;47726;52.766;6.606;2023-04-25T10:04:18;7.93;;;1.88;;
61806;SDS011;47726;52.766;6.606;2023-04-25T10:06:48;5.85;;;1.85;;
61806;SDS011;47726;52.766;6.606;2023-04-25T10:09:15;7.15;;;1.90;;
61806;SDS011;47726;52.766;6.606;2023-04-25T10:11:44;6.95;;;1.80;;
61806;SDS011;47726;52.766;6.606;2023-04-25T10:14:12;6.05;;;1.98;;
61806;SDS011;47726;52.766;6.606;2023-04-25T10:16:38;8.75;;;1.98;;
61806;SDS011;47726;52.766;6.606;2023-04-25T10:19:05;7.38;;;2.00;;
61806;SDS011;47726;52.766;6.606;2023-04-25T10:21:32;8.02;;;2.00;;
61806;SDS011;47726;52.766;6.606;2023-04-25T10:24:01;9.18;;;2.60;;
61806;SDS011;47726;52.766;6.606;2023-04-25T10:26:28;9.20;;;2.22;;
61806;SDS011;47726;52.766;6.606;2023-04-25T10:28:54;8.65;;;2.40;;
61806;SDS011;47726;52.766;6.606;2023-04-25T10:31:29;6.45;;;2.10;;
61806;SDS011;47726;52.766;6.606;2023-04-25T10:33:55;7.85;;;2.47;;
61806;SDS011;47726;52.766;6.606;2023-04-25T10:36:22;6.85;;;2.15;;
61806;SDS011;47726;52.766;6.606;2023-04-25T10:38:49;7.50;;;2.20;;
61806;SDS011;47726;52.766;6.606;2023-04-25T10:41:17;8.35;;;2.03;;
61806;SDS011;47726;52.766;6.606;2023-04-25T10:43:44;10.15;;;2.38;;
61806;SDS011;47726;52.766;6.606;2023-04-25T10:48:54;8.50;;;2.22;;
61806;SDS011;47726;52.766;6.606;2023-04-25T10:51:33;8.05;;;2.35;;
61806;SDS011;47726;52.766;6.606;2023-04-25T10:59:11;10.43;;;2.40;;
61806;SDS011;47726;52.766;6.606;2023-04-25T11:01:39;8.77;;;2.47;;
61806;SDS011;47726;52.766;6.606;2023-04-25T11:09:35;6.60;;;2.03;;
61806;SDS011;47726;52.766;6.606;2023-04-25T11:12:03;9.55;;;2.80;;
61806;SDS011;47726;52.766;6.606;2023-04-25T11:14:30;11.02;;;2.63;;
61806;SDS011;47726;52.766;6.606;2023-04-25T11:16:56;8.65;;;2.40;;
61806;SDS011;47726;52.766;6.606;2023-04-25T11:19:23;13.10;;;2.63;;
61806;SDS011;47726;52.766;6.606;2023-04-25T11:21:50;9.20;;;2.50;;
61806;SDS011;47726;52.766;6.606;2023-04-25T11:24:16;10.70;;;2.60;;
61806;SDS011;47726;52.766;6.606;2023-04-25T11:26:42;11.02;;;2.90;;
61806;SDS011;47726;52.766;6.606;2023-04-25T11:29:08;12.93;;;2.80;;
61806;SDS011;47726;52.766;6.606;2023-04-25T11:31:34;9.43;;;2.50;;
61806;SDS011;47726;52.766;6.606;2023-04-25T11:34:00;10.90;;;2.60;;
61806;SDS011;47726;52.766;6.606;2023-04-25T11:36:25;10.30;;;2.63;;
61806;SDS011;47726;52.766;6.606;2023-04-25T11:38:52;8.20;;;2.20;;
61806;SDS011;47726;52.766;6.606;2023-04-25T11:41:18;8.27;;;2.50;;
61806;SDS011;47726;52.766;6.606;2023-04-25T11:43:45;9.15;;;2.35;;
61806;SDS011;47726;52.766;6.606;2023-04-25T11:46:11;7.03;;;2.30;;
61806;SDS011;47726;52.766;6.606;2023-04-25T11:48:37;8.77;;;2.38;;
61806;SDS011;47726;52.766;6.606;2023-04-25T11:51:04;9.75;;;2.10;;
61806;SDS011;47726;52.766;6.606;2023-04-25T11:53:30;8.13;;;2.05;;
61806;SDS011;47726;52.766;6.606;2023-04-25T11:55:55;5.72;;;2.20;;
61806;SDS011;47726;52.766;6.606;2023-04-25T11:58:21;8.57;;;2.30;;
61806;SDS011;47726;52.766;6.606;2023-04-25T12:00:47;6.40;;;2.10;;
61806;SDS011;47726;52.766;6.606;2023-04-25T12:03:12;10.50;;;2.40;;
61806;SDS011;47726;52.766;6.606;2023-04-25T12:05:38;9.15;;;2.55;;
61806;SDS011;47726;52.766;6.606;2023-04-25T12:08:11;8.90;;;2.47;;
61806;SDS011;47726;52.766;6.606;2023-04-25T12:10:41;7.63;;;2.45;;
61806;SDS011;47726;52.766;6.606;2023-04-25T12:16:03;8.80;;;2.20;;
61806;SDS011;47726;52.766;6.606;2023-04-25T12:18:29;8.77;;;2.38;;
61806;SDS011;47726;52.766;6.606;2023-04-25T12:20:55;10.40;;;2.20;;
61806;SDS011;47726;52.766;6.606;2023-04-25T12:23:27;6.40;;;2.10;;
61806;SDS011;47726;52.766;6.606;2023-04-25T12:25:53;7.50;;;1.83;;
61806;SDS011;47726;52.766;6.606;2023-04-25T12:28:19;7.57;;;2.10;;
61806;SDS011;47726;52.766;6.606;2023-04-25T12:33:18;7.30;;;2.30;;
61806;SDS011;47726;52.766;6.606;2023-04-25T12:35:43;6.68;;;1.83;;
61806;SDS011;47726;52.766;6.606;2023-04-25T12:38:09;7.10;;;2.20;;
61806;SDS011;47726;52.766;6.606;2023-04-25T12:40:34;7.75;;;2.10;;
61806;SDS011;47726;52.766;6.606;2023-04-25T12:43:00;6.30;;;2.13;;
61806;SDS011;47726;52.766;6.606;2023-04-25T12:45:25;8.93;;;2.20;;
61806;SDS011;47726;52.766;6.606;2023-04-25T12:47:51;3.97;;;1.70;;
61806;SDS011;47726;52.766;6.606;2023-04-25T12:50:17;7.78;;;1.92;;
61806;SDS011;47726;52.766;6.606;2023-04-25T12:52:42;7.07;;;2.08;;
61806;SDS011;47726;52.766;6.606;2023-04-25T12:55:08;7.47;;;2.00;;
61806;SDS011;47726;52.766;6.606;2023-04-25T12:57:33;6.53;;;2.25;;
61806;SDS011;47726;52.766;6.606;2023-04-25T12:59:59;6.45;;;2.08;;
61806;SDS011;47726;52.766;6.606;2023-04-25T13:02:25;7.35;;;2.08;;
61806;SDS011;47726;52.766;6.606;2023-04-25T13:04:51;8.48;;;2.22;;
61806;SDS011;47726;52.766;6.606;2023-04-25T13:07:16;8.27;;;2.40;;
61806;SDS011;47726;52.766;6.606;2023-04-25T13:09:42;6.57;;;2.22;;
61806;SDS011;47726;52.766;6.606;2023-04-25T13:12:08;6.97;;;2.00;;
61806;SDS011;47726;52.766;6.606;2023-04-25T13:14:33;6.65;;;2.03;;
61806;SDS011;47726;52.766;6.606;2023-04-25T13:16:59;8.48;;;2.20;;
61806;SDS011;47726;52.766;6.606;2023-04-25T13:19:25;6.68;;;2.10;;
61806;SDS011;47726;52.766;6.606;2023-04-25T13:21:50;5.22;;;1.95;;
61806;SDS011;47726;52.766;6.606;2023-04-25T13:24:16;7.15;;;2.20;;
61806;SDS011;47726;52.766;6.606;2023-04-25T13:26:42;8.43;;;2.00;;
61806;SDS011;47726;52.766;6.606;2023-04-25T13:29:08;4.50;;;1.75;;
61806;SDS011;47726;52.766;6.606;2023-04-25T13:31:33;6.60;;;1.80;;
61806;SDS011;47726;52.766;6.606;2023-04-25T13:33:59;4.95;;;1.75;;
61806;SDS011;47726;52.766;6.606;2023-04-25T13:36:25;5.57;;;1.80;;
61806;SDS011;47726;52.766;6.606;2023-04-25T13:38:50;4.22;;;1.70;;
61806;SDS011;47726;52.766;6.606;2023-04-25T13:41:16;6.03;;;1.95;;
61806;SDS011;47726;52.766;6.606;2023-04-25T13:43:43;7.78;;;1.90;;
61806;SDS011;47726;52.766;6.606;2023-04-25T13:46:10;6.63;;;2.08;;
61806;SDS011;47726;52.766;6.606;2023-04-25T13:48:36;8.80;;;2.10;;
61806;SDS011;47726;52.766;6.606;2023-04-25T13:51:02;6.20;;;2.00;;
61806;SDS011;47726;52.766;6.606;2023-04-25T13:53:28;8.52;;;2.10;;
61806;SDS011;47726;52.766;6.606;2023-04-25T13:55:53;4.75;;;1.77;;
61806;SDS011;47726;52.766;6.606;2023-04-25T13:58:19;6.65;;;2.05;;
61806;SDS011;47726;52.766;6.606;2023-04-25T14:00:45;5.05;;;1.83;;
61806;SDS011;47726;52.766;6.606;2023-04-25T14:03:11;5.05;;;1.73;;
61806;SDS011;47726;52.766;6.606;2023-04-25T14:05:37;5.65;;;1.92;;
61806;SDS011;47726;52.766;6.606;2023-04-25T14:08:03;8.02;;;2.08;;
61806;SDS011;47726;52.766;6.606;2023-04-25T14:10:30;9.20;;;2.22;;
61806;SDS011;47726;52.766;6.606;2023-04-25T14:12:56;7.35;;;2.00;;
61806;SDS011;47726;52.766;6.606;2023-04-25T14:15:21;5.80;;;1.92;;
61806;SDS011;47726;52.766;6.606;2023-04-25T14:17:47;8.25;;;2.25;;
61806;SDS011;47726;52.766;6.606;2023-04-25T14:20:13;6.18;;;2.08;;
61806;SDS011;47726;52.766;6.606;2023-04-25T14:22:39;8.52;;;2.30;;
61806;SDS011;47726;52.766;6.606;2023-04-25T14:25:16;8.43;;;2.08;;
61806;SDS011;47726;52.766;6.606;2023-04-25T14:27:42;8.15;;;2.17;;
61806;SDS011;47726;52.766;6.606;2023-04-25T14:30:09;9.52;;;2.30;;
61806;SDS011;47726;52.766;6.606;2023-04-25T14:32:36;8.13;;;2.20;;
61806;SDS011;47726;52.766;6.606;2023-04-25T14:35:02;9.68;;;2.47;;
61806;SDS011;47726;52.766;6.606;2023-04-25T14:37:28;8.68;;;2.53;;
61806;SDS011;47726;52.766;6.606;2023-04-25T14:39:53;8.70;;;2.58;;
61806;SDS011;47726;52.766;6.606;2023-04-25T14:42:19;5.57;;;2.00;;
61806;SDS011;47726;52.766;6.606;2023-04-25T14:44:45;8.55;;;2.30;;
61806;SDS011;47726;52.766;6.606;2023-04-25T14:47:11;5.97;;;1.90;;
61806;SDS011;47726;52.766;6.606;2023-04-25T14:49:36;6.72;;;2.33;;
61806;SDS011;47726;52.766;6.606;2023-04-25T14:52:02;9.93;;;2.22;;
61806;SDS011;47726;52.766;6.606;2023-04-25T14:54:28;9.18;;;2.50;;
61806;SDS011;47726;52.766;6.606;2023-04-25T14:56:53;8.27;;;2.40;;